createdAt,value
2022-11-15T00:00:50.452Z,6.07
2022-11-15T00:03:19.360Z,5.95
2022-11-15T00:05:47.659Z,5.47
2022-11-15T00:08:15.901Z,6.20
2022-11-15T00:10:56.255Z,6.03
2022-11-15T00:13:24.078Z,6.22
2022-11-15T00:15:52.081Z,7.30
2022-11-15T00:18:20.804Z,6.00
2022-11-15T00:20:48.627Z,6.53
2022-11-15T00:23:17.451Z,6.20
2022-11-15T00:25:46.653Z,6.50
2022-11-15T00:28:14.758Z,5.53
2022-11-15T00:30:42.563Z,6.53
2022-11-15T00:33:11.727Z,6.07
2022-11-15T00:35:39.552Z,6.75
2022-11-15T00:38:07.472Z,6.05
2022-11-15T00:40:35.267Z,6.35
2022-11-15T00:43:04.444Z,7.00
2022-11-15T00:45:32.244Z,6.38
2022-11-15T00:48:00.046Z,6.70
2022-11-15T00:50:27.859Z,6.88
2022-11-15T00:52:55.686Z,6.80
2022-11-15T00:55:23.510Z,6.75
2022-11-15T00:57:51.312Z,7.07
2022-11-15T01:00:20.781Z,7.18
2022-11-15T01:02:48.601Z,7.57
2022-11-15T01:05:16.539Z,6.80
2022-11-15T01:07:44.365Z,7.38
2022-11-15T01:10:12.260Z,7.28
2022-11-15T01:12:40.106Z,7.30
2022-11-15T01:15:08.684Z,7.47
2022-11-15T01:17:37.839Z,7.05
2022-11-15T01:20:06.455Z,7.22
2022-11-15T01:22:34.323Z,7.50
2022-11-15T01:25:02.171Z,7.43
2022-11-15T01:27:29.995Z,7.85
2022-11-15T01:29:57.810Z,7.05
2022-11-15T01:32:25.621Z,7.43
2022-11-15T01:34:54.787Z,6.88
2022-11-15T01:37:22.723Z,7.10
2022-11-15T01:39:50.573Z,7.78
2022-11-15T01:42:19.936Z,7.35
2022-11-15T01:44:50.290Z,6.82
2022-11-15T01:47:21.784Z,6.25
2022-11-15T01:49:57.484Z,6.72
2022-11-15T01:52:28.432Z,7.07
2022-11-15T01:55:03.475Z,7.28
2022-11-15T01:57:31.687Z,7.43
2022-11-15T02:00:01.224Z,6.68
2022-11-15T02:02:29.286Z,6.93
2022-11-15T02:04:58.663Z,7.20
2022-11-15T02:07:26.777Z,6.68
2022-11-15T02:09:56.891Z,6.75
2022-11-15T02:12:25.164Z,6.57
2022-11-15T02:14:55.572Z,6.55
2022-11-15T02:17:46.343Z,6.95
2022-11-15T02:20:58.538Z,6.85
2022-11-15T02:24:06.763Z,4.95
2022-11-15T02:27:10.066Z,6.35
2022-11-15T02:29:59.212Z,6.25
2022-11-15T02:32:37.351Z,6.88
2022-11-15T02:35:14.822Z,7.45
2022-11-15T02:37:49.047Z,7.10
2022-11-15T02:40:27.047Z,6.78
2022-11-15T02:43:16.467Z,6.63
2022-11-15T02:45:49.997Z,6.65
2022-11-15T02:48:21.043Z,6.32
2022-11-15T02:50:49.920Z,6.55
2022-11-15T02:53:18.015Z,6.43
2022-11-15T02:55:48.482Z,7.13
2022-11-15T02:58:42.941Z,6.85
2022-11-15T03:01:20.423Z,7.20
2022-11-15T03:04:01.782Z,6.68
2022-11-15T03:06:37.641Z,5.53
2022-11-15T03:09:09.434Z,5.90
2022-11-15T03:11:40.843Z,5.22
2022-11-15T03:14:20.456Z,5.88
2022-11-15T03:16:52.907Z,6.68
2022-11-15T03:19:32.146Z,7.40
2022-11-15T03:22:04.660Z,9.10
2022-11-15T03:24:37.088Z,8.77
2022-11-15T03:27:07.822Z,9.52
2022-11-15T03:29:40.031Z,9.45
2022-11-15T03:34:43.515Z,8.43
2022-11-15T03:37:14.204Z,7.60
2022-11-15T03:39:42.336Z,7.35
2022-11-15T03:42:22.254Z,6.78
2022-11-15T03:44:54.800Z,6.55
2022-11-15T03:47:27.148Z,6.07
2022-11-15T03:50:02.569Z,5.68
2022-11-15T03:52:34.331Z,6.28
2022-11-15T03:55:04.956Z,5.80
2022-11-15T03:57:33.119Z,5.60
2022-11-15T04:00:00.965Z,5.85
2022-11-15T04:02:29.142Z,5.18
2022-11-15T04:04:58.303Z,4.90
2022-11-15T04:07:26.198Z,4.38
2022-11-15T04:10:06.501Z,4.50
2022-11-15T04:12:36.192Z,4.50
2022-11-15T04:15:09.045Z,4.32
2022-11-15T04:17:38.654Z,4.30
2022-11-15T04:20:28.049Z,4.00
2022-11-15T04:23:13.750Z,3.72
2022-11-15T04:25:42.060Z,3.67
2022-11-15T04:28:09.959Z,3.70
2022-11-15T04:30:37.829Z,3.97
2022-11-15T04:33:05.724Z,3.70
2022-11-15T04:35:34.895Z,3.97
2022-11-15T04:38:03.877Z,4.10
2022-11-15T04:40:31.712Z,3.92
2022-11-15T04:43:03.626Z,4.20
2022-11-15T04:45:32.333Z,4.15
2022-11-15T04:48:00.171Z,4.18
2022-11-15T04:50:27.987Z,4.10
2022-11-15T04:52:57.169Z,3.47
2022-11-15T04:55:24.964Z,4.32
2022-11-15T04:58:00.770Z,5.13
2022-11-15T05:00:29.966Z,3.85
2022-11-15T05:03:15.446Z,3.90
2022-11-15T05:05:43.625Z,4.07
2022-11-15T05:08:12.789Z,3.53
2022-11-15T05:10:40.612Z,4.03
2022-11-15T05:13:08.429Z,3.75
2022-11-15T05:15:36.254Z,3.95
2022-11-15T05:18:04.075Z,3.95
2022-11-15T05:20:31.916Z,4.10
2022-11-15T05:22:59.751Z,3.92
2022-11-15T05:25:29.034Z,4.22
2022-11-15T05:27:57.111Z,4.00
2022-11-15T05:30:25.010Z,4.18
2022-11-15T05:32:52.938Z,4.68
2022-11-15T05:35:28.030Z,4.80
2022-11-15T05:37:55.851Z,4.70
2022-11-15T05:40:23.707Z,4.80
2022-11-15T05:42:52.905Z,4.50
2022-11-15T05:45:26.574Z,3.90
2022-11-15T05:47:57.501Z,4.07
2022-11-15T05:50:25.478Z,4.20
2022-11-15T05:52:53.801Z,4.30
2022-11-15T05:55:21.851Z,4.70
2022-11-15T05:57:49.724Z,4.55
2022-11-15T06:00:19.641Z,4.38
2022-11-15T06:02:47.452Z,4.70
2022-11-15T06:05:15.396Z,4.82
2022-11-15T06:07:43.300Z,4.53
2022-11-15T06:10:11.529Z,4.32
2022-11-15T06:12:39.343Z,4.32
2022-11-15T06:15:08.183Z,4.38
2022-11-15T06:17:37.333Z,4.20
2022-11-15T06:20:05.638Z,4.47
2022-11-15T06:22:33.610Z,4.97
2022-11-15T06:25:05.207Z,5.03
2022-11-15T06:27:33.542Z,5.38
2022-11-15T06:30:01.383Z,4.85
2022-11-15T06:32:30.643Z,4.88
2022-11-15T06:34:59.832Z,4.38
2022-11-15T06:37:27.635Z,4.88
2022-11-15T06:39:55.447Z,4.63
2022-11-15T06:42:23.235Z,5.10
2022-11-15T06:44:51.082Z,4.82
2022-11-15T06:47:18.888Z,4.68
2022-11-15T06:49:46.702Z,4.72
2022-11-15T06:52:15.855Z,4.70
2022-11-15T06:54:43.681Z,4.68
2022-11-15T06:57:11.585Z,5.03
2022-11-15T06:59:40.742Z,4.88
2022-11-15T07:02:13.004Z,4.20
2022-11-15T07:04:40.866Z,5.40
2022-11-15T07:07:08.835Z,4.50
2022-11-15T07:09:38.029Z,5.05
2022-11-15T07:12:08.059Z,4.45
2022-11-15T07:14:36.470Z,4.20
2022-11-15T07:17:05.624Z,4.68
2022-11-15T07:19:33.643Z,4.30
2022-11-15T07:22:01.439Z,4.05
2022-11-15T07:24:29.261Z,4.20
2022-11-15T07:26:58.740Z,4.00
2022-11-15T07:29:27.835Z,4.25
2022-11-15T07:31:56.028Z,4.97
2022-11-15T07:34:24.681Z,4.28
2022-11-15T07:36:52.474Z,4.25
2022-11-15T07:39:20.291Z,5.22
2022-11-15T07:41:49.088Z,5.05
2022-11-15T07:44:18.386Z,4.72
2022-11-15T07:46:46.186Z,4.85
2022-11-15T07:49:14.003Z,4.90
2022-11-15T07:51:41.799Z,5.10
2022-11-15T07:54:09.621Z,4.47
2022-11-15T07:56:37.447Z,4.50
2022-11-15T07:59:05.271Z,4.18
2022-11-15T08:01:34.480Z,4.28
2022-11-15T08:04:02.341Z,4.30
2022-11-15T08:06:30.175Z,4.55
2022-11-15T08:08:58.009Z,5.05
2022-11-15T08:11:25.963Z,4.05
2022-11-15T08:13:53.755Z,3.72
2022-11-15T08:16:21.576Z,4.32
2022-11-15T08:18:50.918Z,4.38
2022-11-15T08:21:22.452Z,4.10
2022-11-15T08:23:50.412Z,4.40
2022-11-15T08:26:18.521Z,4.88
2022-11-15T08:28:46.355Z,3.97
2022-11-15T08:31:17.544Z,3.83
2022-11-15T08:33:46.456Z,4.68
2022-11-15T08:36:17.499Z,4.15
2022-11-15T08:38:45.744Z,4.00
2022-11-15T08:41:18.206Z,3.75
2022-11-15T08:43:46.038Z,4.50
2022-11-15T08:46:15.583Z,4.30
2022-11-15T08:48:43.396Z,4.55
2022-11-15T08:51:11.228Z,4.78
2022-11-15T08:53:40.620Z,4.40
2022-11-15T08:56:09.963Z,4.00
2022-11-15T08:58:38.029Z,3.88
2022-11-15T09:01:07.063Z,4.05
2022-11-15T09:03:35.280Z,3.17
2022-11-15T09:06:03.373Z,3.63
2022-11-15T09:08:47.059Z,4.15
2022-11-15T09:11:20.992Z,3.75
2022-11-15T09:13:48.925Z,3.83
2022-11-15T09:16:17.100Z,2.85
2022-11-15T09:18:45.336Z,3.45
2022-11-15T09:21:13.182Z,3.13
2022-11-15T09:23:41.168Z,3.28
2022-11-15T09:26:09.572Z,3.35
2022-11-15T09:28:42.586Z,3.60
2022-11-15T09:31:10.433Z,3.90
2022-11-15T09:33:38.628Z,3.50
2022-11-15T09:36:08.887Z,2.95
2022-11-15T09:38:37.236Z,3.33
2022-11-15T09:41:30.732Z,3.50
2022-11-15T09:44:21.185Z,3.15
2022-11-15T09:47:03.444Z,2.85
2022-11-15T09:49:32.774Z,3.30
2022-11-15T09:52:01.121Z,3.17
2022-11-15T09:57:26.322Z,2.80
2022-11-15T10:00:30.864Z,3.88
2022-11-15T10:03:02.968Z,3.58
2022-11-15T10:05:32.438Z,4.00
2022-11-15T10:08:08.124Z,3.50
2022-11-15T10:10:42.125Z,3.90
2022-11-15T10:13:18.126Z,3.45
2022-11-15T10:15:49.709Z,3.25
2022-11-15T10:18:20.793Z,3.75
2022-11-15T10:20:51.328Z,3.33
2022-11-15T10:23:21.465Z,2.97
2022-11-15T10:25:52.540Z,3.15
2022-11-15T10:28:24.634Z,2.80
2022-11-15T10:30:55.987Z,3.20
2022-11-15T10:33:31.899Z,3.23
2022-11-15T10:36:21.306Z,3.10
2022-11-15T10:38:58.044Z,3.08
2022-11-15T10:41:39.270Z,3.00
2022-11-15T10:44:29.001Z,3.45
2022-11-15T10:47:27.458Z,3.92
2022-11-15T10:50:01.375Z,3.17
2022-11-15T10:52:30.822Z,3.40
2022-11-15T10:55:03.412Z,3.70
2022-11-15T10:57:34.723Z,4.10
2022-11-15T11:00:06.136Z,5.50
2022-11-15T11:02:38.444Z,15.10
2022-11-15T11:07:37.764Z,7.85
2022-11-15T11:10:49.320Z,5.20
2022-11-15T11:13:17.110Z,5.55
2022-11-15T11:15:49.108Z,4.90
2022-11-15T11:18:25.414Z,3.40
2022-11-15T11:20:59.702Z,3.20
2022-11-15T11:23:40.398Z,3.42
2022-11-15T11:26:28.261Z,3.40
2022-11-15T11:29:03.940Z,3.38
2022-11-15T11:31:40.159Z,3.17
2022-11-15T11:34:17.815Z,3.20
2022-11-15T11:36:53.647Z,3.08
2022-11-15T11:39:30.907Z,3.70
2022-11-15T11:42:09.495Z,3.53
2022-11-15T11:44:47.874Z,3.83
2022-11-15T11:47:24.104Z,3.88
2022-11-15T11:49:55.841Z,4.18
2022-11-15T11:52:28.119Z,4.30
2022-11-15T11:57:40.082Z,3.35
2022-11-15T12:00:19.572Z,3.90
2022-11-15T12:02:52.644Z,4.25
2022-11-15T12:05:29.314Z,4.30
2022-11-15T12:08:04.508Z,3.70
2022-11-15T12:10:35.227Z,3.90
2022-11-15T12:13:09.880Z,3.65
2022-11-15T12:15:42.982Z,3.53
2022-11-15T12:18:14.912Z,3.97
2022-11-15T12:20:51.993Z,4.80
2022-11-15T12:23:24.587Z,3.97
2022-11-15T12:25:56.083Z,4.10
2022-11-15T12:28:37.675Z,4.18
2022-11-15T12:31:13.039Z,3.80
2022-11-15T12:33:43.649Z,3.25
2022-11-15T12:36:31.638Z,3.95
2022-11-15T12:39:01.185Z,3.13
2022-11-15T12:41:30.517Z,3.40
2022-11-15T12:44:00.044Z,3.40
2022-11-15T12:47:01.168Z,3.10
2022-11-15T12:49:46.917Z,3.30
2022-11-15T12:52:17.229Z,3.50
2022-11-15T12:54:54.214Z,3.50
2022-11-15T12:57:34.955Z,3.70
2022-11-15T13:00:07.846Z,3.80
2022-11-15T13:02:37.182Z,3.67
2022-11-15T13:06:07.925Z,3.33
2022-11-15T13:08:51.915Z,3.50
2022-11-15T13:11:49.372Z,3.50
2022-11-15T13:14:50.589Z,3.78
2022-11-15T13:17:35.327Z,4.00
2022-11-15T13:20:20.315Z,4.20
2022-11-15T13:22:57.528Z,3.97
2022-11-15T13:25:52.928Z,3.92
2022-11-15T13:28:24.571Z,4.10
2022-11-15T13:30:54.394Z,3.55
2022-11-15T13:33:25.317Z,3.88
2022-11-15T13:35:58.479Z,3.83
2022-11-15T13:38:31.171Z,4.30
2022-11-15T13:41:01.642Z,4.10
2022-11-15T13:43:33.461Z,3.92
2022-11-15T13:48:40.962Z,3.53
2022-11-15T13:51:15.348Z,3.97
2022-11-15T13:53:47.774Z,3.80
2022-11-15T13:56:18.308Z,4.05
2022-11-15T13:58:46.401Z,4.10
2022-11-15T14:01:20.613Z,4.07
2022-11-15T14:03:52.875Z,4.07
2022-11-15T14:06:22.890Z,3.95
2022-11-15T14:09:03.495Z,3.80
2022-11-15T14:11:33.149Z,4.25
2022-11-15T14:14:16.629Z,4.28
2022-11-15T14:16:46.016Z,4.57
2022-11-15T14:19:34.778Z,4.65
2022-11-15T14:22:21.397Z,5.10
2022-11-15T14:25:05.043Z,4.05
2022-11-15T14:27:35.117Z,4.53
2022-11-15T14:30:03.441Z,4.75
2022-11-15T14:32:39.006Z,4.55
2022-11-15T14:35:14.070Z,5.20
2022-11-15T14:37:41.891Z,4.45
2022-11-15T14:40:15.020Z,4.68
2022-11-15T14:42:44.684Z,4.95
2022-11-15T14:45:16.016Z,4.50
2022-11-15T14:47:44.304Z,4.67
2022-11-15T14:50:16.993Z,4.70
2022-11-15T14:52:45.358Z,4.53
2022-11-15T14:55:19.554Z,4.55
2022-11-15T14:57:48.839Z,8.48
2022-11-15T15:00:17.478Z,9.98
2022-11-15T15:02:47.169Z,8.52
2022-11-15T15:05:17.513Z,6.03
2022-11-15T15:07:45.603Z,5.78
2022-11-15T15:10:39.044Z,6.00
2022-11-15T15:13:04.730Z,5.18
2022-11-15T15:15:35.634Z,5.05
2022-11-15T15:18:03.524Z,6.35
2022-11-15T15:20:31.591Z,6.50
2022-11-15T15:22:59.710Z,4.38
2022-11-15T15:25:30.850Z,5.78
2022-11-15T15:27:58.694Z,4.65
2022-11-15T15:30:31.117Z,4.65
2022-11-15T15:32:58.999Z,4.88
2022-11-15T15:35:31.111Z,5.38
2022-11-15T15:37:59.599Z,4.80
2022-11-15T15:40:29.621Z,4.72
2022-11-15T15:42:57.453Z,5.00
2022-11-15T15:45:27.882Z,5.20
2022-11-15T15:47:55.925Z,6.60
2022-11-15T15:50:26.508Z,6.72
2022-11-15T15:52:55.805Z,9.20
2022-11-15T15:55:24.439Z,7.03
2022-11-15T15:57:52.848Z,5.95
2022-11-15T16:00:22.193Z,5.68
2022-11-15T16:02:51.691Z,6.10
2022-11-15T16:05:19.799Z,6.80
2022-11-15T16:07:48.494Z,6.85
2022-11-15T16:10:23.065Z,7.22
2022-11-15T16:12:51.121Z,6.82
2022-11-15T16:15:19.613Z,7.32
2022-11-15T16:17:52.806Z,7.90
2022-11-15T16:20:31.496Z,8.52
2022-11-15T16:23:03.090Z,7.68
2022-11-15T16:25:40.434Z,7.70
2022-11-15T16:28:19.312Z,7.47
2022-11-15T16:30:49.991Z,7.32
2022-11-15T16:33:21.548Z,7.47
2022-11-15T16:35:49.878Z,8.43
2022-11-15T16:38:18.108Z,7.07
2022-11-15T16:40:46.018Z,7.20
2022-11-15T16:43:14.005Z,7.03
2022-11-15T16:45:42.250Z,7.38
2022-11-15T16:48:23.365Z,8.07
2022-11-15T16:50:51.195Z,7.85
2022-11-15T16:53:19.187Z,7.90
2022-11-15T16:55:47.037Z,8.35
2022-11-15T16:58:14.864Z,8.38
2022-11-15T17:00:42.848Z,8.57
2022-11-15T17:03:10.731Z,8.10
2022-11-15T17:05:39.925Z,8.13
2022-11-15T17:08:07.941Z,7.72
2022-11-15T17:10:35.910Z,8.50
2022-11-15T17:13:03.712Z,7.75
2022-11-15T17:15:31.587Z,7.03
2022-11-15T17:17:59.404Z,7.93
2022-11-15T17:20:27.424Z,8.15
2022-11-15T17:22:57.425Z,7.82
2022-11-15T17:25:25.323Z,8.40
2022-11-15T17:27:53.324Z,9.10
2022-11-15T17:30:21.360Z,9.20
2022-11-15T17:32:49.763Z,9.50
2022-11-15T17:35:17.774Z,9.95
2022-11-15T17:37:45.632Z,10.50
2022-11-15T17:40:15.012Z,10.48
2022-11-15T17:42:43.031Z,9.27
2022-11-15T17:45:12.280Z,8.85
2022-11-15T17:47:40.256Z,8.70
2022-11-15T17:50:08.365Z,9.13
2022-11-15T17:52:36.202Z,8.18
2022-11-15T17:55:04.067Z,8.93
2022-11-15T17:57:33.266Z,8.90
2022-11-15T18:00:01.104Z,8.65
2022-11-15T18:02:28.956Z,8.63
2022-11-15T18:04:56.789Z,8.20
2022-11-15T18:07:24.657Z,9.05
2022-11-15T18:09:53.660Z,9.05
2022-11-15T18:12:21.640Z,7.82
2022-11-15T18:14:50.844Z,8.55
2022-11-15T18:17:19.187Z,10.80
2022-11-15T18:19:48.531Z,11.65
2022-11-15T18:22:16.445Z,11.75
2022-11-15T18:24:44.834Z,12.40
2022-11-15T18:27:12.657Z,11.38
2022-11-15T18:29:40.458Z,10.43
2022-11-15T18:32:12.512Z,10.70
2022-11-15T18:34:40.894Z,10.95
2022-11-15T18:37:09.121Z,11.05
2022-11-15T18:39:37.731Z,10.85
2022-11-15T18:42:05.873Z,10.95
2022-11-15T18:44:34.386Z,10.00
2022-11-15T18:47:02.223Z,9.50
2022-11-15T18:49:31.403Z,9.98
2022-11-15T18:51:59.270Z,9.80
2022-11-15T18:54:31.261Z,9.93
2022-11-15T18:56:59.795Z,11.77
2022-11-15T18:59:28.121Z,14.77
2022-11-15T19:01:56.870Z,14.30
2022-11-15T19:04:24.809Z,13.25
2022-11-15T19:06:54.283Z,12.18
2022-11-15T19:09:22.191Z,11.77
2022-11-15T19:11:51.539Z,12.48
2022-11-15T19:14:23.813Z,11.88
2022-11-15T19:16:52.429Z,11.25
2022-11-15T19:19:22.136Z,11.23
2022-11-15T19:21:50.131Z,10.57
2022-11-15T19:24:19.464Z,11.32
2022-11-15T19:26:47.906Z,11.48
2022-11-15T19:29:17.224Z,11.15
2022-11-15T19:31:45.352Z,11.27
2022-11-15T19:34:13.388Z,10.32
2022-11-15T19:36:42.532Z,9.95
2022-11-15T19:39:12.848Z,8.63
2022-11-15T19:41:43.875Z,8.90
2022-11-15T19:44:12.621Z,8.98
2022-11-15T19:46:40.953Z,8.57
2022-11-15T19:49:10.775Z,9.00
2022-11-15T19:51:41.487Z,9.65
2022-11-15T19:54:10.434Z,10.15
2022-11-15T19:56:39.609Z,9.60
2022-11-15T19:59:11.387Z,8.98
2022-11-15T20:01:39.746Z,9.73
2022-11-15T20:04:09.939Z,9.00
2022-11-15T20:06:41.205Z,8.00
2022-11-15T20:09:09.607Z,9.27
2022-11-15T20:11:39.281Z,9.30
2022-11-15T20:14:10.683Z,8.43
2022-11-15T20:16:38.614Z,8.63
2022-11-15T20:19:07.233Z,8.55
2022-11-15T20:21:35.343Z,8.77
2022-11-15T20:24:03.261Z,9.10
2022-11-15T20:26:32.195Z,8.90
2022-11-15T20:29:03.025Z,10.00
2022-11-15T20:31:32.921Z,9.00
2022-11-15T20:34:00.924Z,8.38
2022-11-15T20:36:29.224Z,8.63
2022-11-15T20:38:58.819Z,8.35
2022-11-15T20:41:27.429Z,8.13
2022-11-15T20:43:55.578Z,8.13
2022-11-15T20:46:23.698Z,7.47
2022-11-15T20:48:52.945Z,7.70
2022-11-15T20:51:21.359Z,8.13
2022-11-15T20:53:49.296Z,7.88
2022-11-15T20:56:20.143Z,8.40
2022-11-15T20:58:50.244Z,8.20
2022-11-15T21:01:23.255Z,7.82
2022-11-15T21:03:53.267Z,7.55
2022-11-15T21:06:21.696Z,8.15
2022-11-15T21:09:07.396Z,7.75
2022-11-15T21:11:52.779Z,7.90
2022-11-15T21:14:20.664Z,7.78
2022-11-15T21:16:48.499Z,8.77
2022-11-15T21:19:19.755Z,8.00
2022-11-15T21:21:50.536Z,8.75
2022-11-15T21:24:20.014Z,8.27
2022-11-15T21:26:48.150Z,8.55
2022-11-15T21:29:17.077Z,8.38
2022-11-15T21:31:45.220Z,7.63
2022-11-15T21:34:13.079Z,7.88
2022-11-15T21:36:42.455Z,6.90
2022-11-15T21:39:10.601Z,7.90
2022-11-15T21:41:38.560Z,7.90
2022-11-15T21:44:06.891Z,7.72
2022-11-15T21:46:37.015Z,7.70
2022-11-15T21:49:05.424Z,6.53
2022-11-15T21:51:33.663Z,7.32
2022-11-15T21:54:03.142Z,7.75
2022-11-15T21:56:31.113Z,7.95
2022-11-15T21:58:59.021Z,7.57
2022-11-15T22:01:46.336Z,7.43
2022-11-15T22:04:14.689Z,7.25
2022-11-15T22:06:42.546Z,7.10
2022-11-15T22:09:12.008Z,7.32
2022-11-15T22:11:40.282Z,7.57
2022-11-15T22:14:08.159Z,6.80
2022-11-15T22:16:37.566Z,7.90
2022-11-15T22:19:05.414Z,6.80
2022-11-15T22:21:33.503Z,9.15
2022-11-15T22:24:01.422Z,8.30
2022-11-15T22:26:30.591Z,9.27
2022-11-15T22:28:58.418Z,9.05
2022-11-15T22:31:26.273Z,9.30
2022-11-15T22:33:54.103Z,9.40
2022-11-15T22:36:21.953Z,9.75
2022-11-15T22:38:49.803Z,10.13
2022-11-15T22:41:17.631Z,10.35
2022-11-15T22:43:48.167Z,11.18
2022-11-15T22:46:16.407Z,11.18
2022-11-15T22:48:44.212Z,10.30
2022-11-15T22:51:12.036Z,9.30
2022-11-15T22:53:39.936Z,9.15
2022-11-15T22:56:08.257Z,9.05
2022-11-15T22:58:36.613Z,9.68
2022-11-15T23:01:06.936Z,9.43
2022-11-15T23:03:35.424Z,9.10
2022-11-15T23:06:04.657Z,8.98
2022-11-15T23:08:32.816Z,8.27
2022-11-15T23:11:19.269Z,9.60
2022-11-15T23:13:47.416Z,8.85
2022-11-15T23:16:34.499Z,10.15
2022-11-15T23:19:06.335Z,10.52
2022-11-15T23:21:53.243Z,9.73
2022-11-15T23:24:21.811Z,10.27
2022-11-15T23:26:52.069Z,9.98
2022-11-15T23:29:22.841Z,10.05
2022-11-15T23:32:09.716Z,10.63
2022-11-15T23:34:39.965Z,11.02
2022-11-15T23:37:09.802Z,10.38
2022-11-15T23:39:37.770Z,10.02
2022-11-15T23:42:09.010Z,10.02
2022-11-15T23:44:37.560Z,9.52
2022-11-15T23:47:06.820Z,9.80
2022-11-15T23:49:34.636Z,9.95
2022-11-15T23:52:02.492Z,9.60
2022-11-15T23:54:30.662Z,9.68
2022-11-15T23:56:58.483Z,9.43
2022-11-15T23:59:26.303Z,10.25
